sensor_id;sensor_type;location;lat;lon;timestamp;P1;durP1;ratioP1;P2;durP2;ratioP2
45274;SDS011;31019;43.780;25.948;2024-03-02T00:00:25;36.53;;;33.83;;
45274;SDS011;31019;43.780;25.948;2024-03-02T00:02:52;36.90;;;34.30;;
45274;SDS011;31019;43.780;25.948;2024-03-02T00:05:19;38.33;;;35.53;;
45274;SDS011;31019;43.780;25.948;2024-03-02T00:07:53;40.08;;;37.17;;
45274;SDS011;31019;43.780;25.948;2024-03-02T00:10:22;42.15;;;39.03;;
45274;SDS011;31019;43.780;25.948;2024-03-02T00:15:31;39.28;;;36.28;;
45274;SDS011;31019;43.780;25.948;2024-03-02T00:18:12;39.65;;;36.75;;
45274;SDS011;31019;43.780;25.948;2024-03-02T00:20:39;44.17;;;41.08;;
45274;SDS011;31019;43.780;25.948;2024-03-02T00:23:08;41.17;;;38.17;;
45274;SDS011;31019;43.780;25.948;2024-03-02T00:25:40;39.67;;;36.58;;
45274;SDS011;31019;43.780;25.948;2024-03-02T00:30:54;46.78;;;43.47;;
45274;SDS011;31019;43.780;25.948;2024-03-02T00:33:30;41.40;;;38.40;;
45274;SDS011;31019;43.780;25.948;2024-03-02T00:35:58;40.42;;;37.47;;
45274;SDS011;31019;43.780;25.948;2024-03-02T00:38:27;41.35;;;38.25;;
45274;SDS011;31019;43.780;25.948;2024-03-02T00:40:55;42.13;;;38.95;;
45274;SDS011;31019;43.780;25.948;2024-03-02T00:46:15;41.55;;;38.45;;
45274;SDS011;31019;43.780;25.948;2024-03-02T00:48:48;41.10;;;38.00;;
45274;SDS011;31019;43.780;25.948;2024-03-02T00:51:19;41.67;;;38.58;;
45274;SDS011;31019;43.780;25.948;2024-03-02T00:53:48;43.63;;;38.78;;
45274;SDS011;31019;43.780;25.948;2024-03-02T00:56:15;45.65;;;42.17;;
45274;SDS011;31019;43.780;25.948;2024-03-02T00:58:43;45.80;;;42.50;;
45274;SDS011;31019;43.780;25.948;2024-03-02T01:01:09;44.40;;;41.00;;
45274;SDS011;31019;43.780;25.948;2024-03-02T01:03:36;45.80;;;42.50;;
45274;SDS011;31019;43.780;25.948;2024-03-02T01:06:04;44.60;;;41.17;;
45274;SDS011;31019;43.780;25.948;2024-03-02T01:08:33;42.80;;;39.70;;
45274;SDS011;31019;43.780;25.948;2024-03-02T01:11:02;43.42;;;40.13;;
45274;SDS011;31019;43.780;25.948;2024-03-02T01:13:29;42.22;;;39.03;;
45274;SDS011;31019;43.780;25.948;2024-03-02T01:15:57;49.03;;;45.38;;
45274;SDS011;31019;43.780;25.948;2024-03-02T01:18:24;48.05;;;44.45;;
45274;SDS011;31019;43.780;25.948;2024-03-02T01:20:51;44.05;;;40.65;;
45274;SDS011;31019;43.780;25.948;2024-03-02T01:23:21;45.30;;;41.80;;
45274;SDS011;31019;43.780;25.948;2024-03-02T01:25:48;51.55;;;47.85;;
45274;SDS011;31019;43.780;25.948;2024-03-02T01:28:17;45.45;;;41.95;;
45274;SDS011;31019;43.780;25.948;2024-03-02T01:30:46;51.38;;;47.38;;
45274;SDS011;31019;43.780;25.948;2024-03-02T01:33:14;51.38;;;47.47;;
45274;SDS011;31019;43.780;25.948;2024-03-02T01:35:41;51.13;;;47.28;;
45274;SDS011;31019;43.780;25.948;2024-03-02T01:38:08;50.80;;;46.90;;
45274;SDS011;31019;43.780;25.948;2024-03-02T01:40:35;50.58;;;46.47;;
45274;SDS011;31019;43.780;25.948;2024-03-02T01:43:03;52.00;;;46.45;;
45274;SDS011;31019;43.780;25.948;2024-03-02T01:45:32;47.78;;;43.78;;
45274;SDS011;31019;43.780;25.948;2024-03-02T01:48:00;47.85;;;44.20;;
45274;SDS011;31019;43.780;25.948;2024-03-02T01:50:28;51.38;;;47.67;;
45274;SDS011;31019;43.780;25.948;2024-03-02T01:52:55;45.90;;;41.78;;
45274;SDS011;31019;43.780;25.948;2024-03-02T01:55:23;44.72;;;41.22;;
45274;SDS011;31019;43.780;25.948;2024-03-02T01:57:51;48.08;;;44.08;;
45274;SDS011;31019;43.780;25.948;2024-03-02T02:00:19;45.17;;;41.75;;
45274;SDS011;31019;43.780;25.948;2024-03-02T02:02:48;47.53;;;43.90;;
45274;SDS011;31019;43.780;25.948;2024-03-02T02:05:17;45.90;;;42.40;;
45274;SDS011;31019;43.780;25.948;2024-03-02T02:07:45;52.45;;;45.22;;
45274;SDS011;31019;43.780;25.948;2024-03-02T02:10:12;54.28;;;50.35;;
45274;SDS011;31019;43.780;25.948;2024-03-02T02:12:40;52.03;;;48.00;;
45274;SDS011;31019;43.780;25.948;2024-03-02T02:15:23;46.70;;;43.17;;
45274;SDS011;31019;43.780;25.948;2024-03-02T02:17:55;44.53;;;41.03;;
45274;SDS011;31019;43.780;25.948;2024-03-02T02:20:22;47.78;;;44.08;;
45274;SDS011;31019;43.780;25.948;2024-03-02T02:22:57;44.75;;;41.33;;
45274;SDS011;31019;43.780;25.948;2024-03-02T02:25:25;48.05;;;43.75;;
45274;SDS011;31019;43.780;25.948;2024-03-02T02:27:52;49.20;;;45.15;;
45274;SDS011;31019;43.780;25.948;2024-03-02T02:30:19;48.75;;;45.15;;
45274;SDS011;31019;43.780;25.948;2024-03-02T02:32:47;45.25;;;41.78;;
45274;SDS011;31019;43.780;25.948;2024-03-02T02:35:14;46.28;;;42.58;;
45274;SDS011;31019;43.780;25.948;2024-03-02T02:37:42;57.45;;;53.35;;
45274;SDS011;31019;43.780;25.948;2024-03-02T02:40:11;53.85;;;48.90;;
45274;SDS011;31019;43.780;25.948;2024-03-02T02:42:38;48.35;;;44.65;;
45274;SDS011;31019;43.780;25.948;2024-03-02T02:45:06;53.35;;;49.15;;
45274;SDS011;31019;43.780;25.948;2024-03-02T02:47:33;58.85;;;54.72;;
45274;SDS011;31019;43.780;25.948;2024-03-02T02:50:00;49.13;;;45.42;;
45274;SDS011;31019;43.780;25.948;2024-03-02T02:52:32;47.40;;;43.70;;
45274;SDS011;31019;43.780;25.948;2024-03-02T02:55:01;46.95;;;43.30;;
45274;SDS011;31019;43.780;25.948;2024-03-02T02:57:30;49.30;;;45.30;;
45274;SDS011;31019;43.780;25.948;2024-03-02T03:00:00;46.47;;;42.90;;
45274;SDS011;31019;43.780;25.948;2024-03-02T03:02:30;54.30;;;50.50;;
45274;SDS011;31019;43.780;25.948;2024-03-02T03:04:57;50.03;;;46.28;;
45274;SDS011;31019;43.780;25.948;2024-03-02T03:07:24;49.85;;;46.05;;
45274;SDS011;31019;43.780;25.948;2024-03-02T03:09:51;54.00;;;49.90;;
45274;SDS011;31019;43.780;25.948;2024-03-02T03:12:18;56.03;;;52.03;;
45274;SDS011;31019;43.780;25.948;2024-03-02T03:14:47;49.60;;;45.67;;
45274;SDS011;31019;43.780;25.948;2024-03-02T03:17:13;47.40;;;43.40;;
45274;SDS011;31019;43.780;25.948;2024-03-02T03:19:40;48.58;;;44.78;;
45274;SDS011;31019;43.780;25.948;2024-03-02T03:22:07;54.17;;;49.97;;
45274;SDS011;31019;43.780;25.948;2024-03-02T03:24:34;52.58;;;48.72;;
45274;SDS011;31019;43.780;25.948;2024-03-02T03:27:01;49.05;;;45.28;;
45274;SDS011;31019;43.780;25.948;2024-03-02T03:29:28;45.40;;;42.00;;
45274;SDS011;31019;43.780;25.948;2024-03-02T03:31:57;43.78;;;40.47;;
45274;SDS011;31019;43.780;25.948;2024-03-02T03:34:23;46.50;;;42.95;;
45274;SDS011;31019;43.780;25.948;2024-03-02T03:36:50;52.15;;;48.15;;
45274;SDS011;31019;43.780;25.948;2024-03-02T03:39:17;51.88;;;47.97;;
45274;SDS011;31019;43.780;25.948;2024-03-02T03:41:44;51.28;;;47.47;;
45274;SDS011;31019;43.780;25.948;2024-03-02T03:44:11;52.53;;;48.53;;
45274;SDS011;31019;43.780;25.948;2024-03-02T03:46:38;51.97;;;47.88;;
45274;SDS011;31019;43.780;25.948;2024-03-02T03:49:06;47.40;;;43.78;;
45274;SDS011;31019;43.780;25.948;2024-03-02T03:51:33;48.10;;;44.30;;
45274;SDS011;31019;43.780;25.948;2024-03-02T03:54:00;54.85;;;50.78;;
45274;SDS011;31019;43.780;25.948;2024-03-02T03:56:27;51.38;;;47.38;;
45274;SDS011;31019;43.780;25.948;2024-03-02T03:58:54;46.63;;;42.63;;
45274;SDS011;31019;43.780;25.948;2024-03-02T04:01:23;47.78;;;44.08;;
45274;SDS011;31019;43.780;25.948;2024-03-02T04:03:50;47.83;;;44.03;;
45274;SDS011;31019;43.780;25.948;2024-03-02T04:06:18;54.00;;;49.80;;
45274;SDS011;31019;43.780;25.948;2024-03-02T04:08:45;53.58;;;48.72;;
45274;SDS011;31019;43.780;25.948;2024-03-02T04:11:12;47.53;;;43.72;;
45274;SDS011;31019;43.780;25.948;2024-03-02T04:13:39;47.40;;;43.60;;
45274;SDS011;31019;43.780;25.948;2024-03-02T04:16:06;55.58;;;51.28;;
45274;SDS011;31019;43.780;25.948;2024-03-02T04:18:32;53.08;;;48.92;;
45274;SDS011;31019;43.780;25.948;2024-03-02T04:21:00;57.88;;;53.67;;
45274;SDS011;31019;43.780;25.948;2024-03-02T04:23:28;54.22;;;49.88;;
45274;SDS011;31019;43.780;25.948;2024-03-02T04:25:55;48.45;;;44.65;;
45274;SDS011;31019;43.780;25.948;2024-03-02T04:28:22;49.42;;;45.63;;
45274;SDS011;31019;43.780;25.948;2024-03-02T04:30:49;50.80;;;46.75;;
45274;SDS011;31019;43.780;25.948;2024-03-02T04:33:17;55.72;;;51.53;;
45274;SDS011;31019;43.780;25.948;2024-03-02T04:35:43;55.40;;;51.20;;
45274;SDS011;31019;43.780;25.948;2024-03-02T04:38:11;50.47;;;46.47;;
45274;SDS011;31019;43.780;25.948;2024-03-02T04:40:40;51.05;;;47.00;;
45274;SDS011;31019;43.780;25.948;2024-03-02T04:43:06;55.80;;;51.50;;
45274;SDS011;31019;43.780;25.948;2024-03-02T04:45:34;60.88;;;56.40;;
45274;SDS011;31019;43.780;25.948;2024-03-02T04:48:04;62.38;;;57.88;;
45274;SDS011;31019;43.780;25.948;2024-03-02T04:50:32;51.53;;;47.53;;
45274;SDS011;31019;43.780;25.948;2024-03-02T04:52:59;49.65;;;45.30;;
45274;SDS011;31019;43.780;25.948;2024-03-02T04:55:26;45.13;;;41.72;;
45274;SDS011;31019;43.780;25.948;2024-03-02T04:58:22;51.35;;;47.55;;
45274;SDS011;31019;43.780;25.948;2024-03-02T05:00:49;50.47;;;46.38;;
45274;SDS011;31019;43.780;25.948;2024-03-02T05:03:16;48.63;;;44.78;;
45274;SDS011;31019;43.780;25.948;2024-03-02T05:05:43;49.15;;;45.25;;
45274;SDS011;31019;43.780;25.948;2024-03-02T05:08:10;45.80;;;42.30;;
45274;SDS011;31019;43.780;25.948;2024-03-02T05:10:37;43.22;;;39.80;;
45274;SDS011;31019;43.780;25.948;2024-03-02T05:13:04;54.13;;;50.22;;
45274;SDS011;31019;43.780;25.948;2024-03-02T05:15:32;48.95;;;45.08;;
45274;SDS011;31019;43.780;25.948;2024-03-02T05:17:59;43.15;;;39.95;;
45274;SDS011;31019;43.780;25.948;2024-03-02T05:20:28;48.10;;;44.30;;
45274;SDS011;31019;43.780;25.948;2024-03-02T05:22:55;44.25;;;40.75;;
45274;SDS011;31019;43.780;25.948;2024-03-02T05:25:21;45.30;;;41.88;;
45274;SDS011;31019;43.780;25.948;2024-03-02T05:27:48;42.97;;;39.67;;
45274;SDS011;31019;43.780;25.948;2024-03-02T05:30:15;52.72;;;48.28;;
45274;SDS011;31019;43.780;25.948;2024-03-02T05:32:44;47.25;;;43.65;;
45274;SDS011;31019;43.780;25.948;2024-03-02T05:35:11;45.95;;;42.55;;
45274;SDS011;31019;43.780;25.948;2024-03-02T05:37:38;45.17;;;41.55;;
45274;SDS011;31019;43.780;25.948;2024-03-02T05:40:06;54.17;;;50.38;;
45274;SDS011;31019;43.780;25.948;2024-03-02T05:42:34;48.63;;;45.03;;
45274;SDS011;31019;43.780;25.948;2024-03-02T05:45:00;50.03;;;45.88;;
45274;SDS011;31019;43.780;25.948;2024-03-02T05:47:27;50.25;;;46.55;;
45274;SDS011;31019;43.780;25.948;2024-03-02T05:49:56;52.58;;;48.58;;
45274;SDS011;31019;43.780;25.948;2024-03-02T05:52:22;47.40;;;43.60;;
45274;SDS011;31019;43.780;25.948;2024-03-02T05:54:49;43.75;;;40.45;;
45274;SDS011;31019;43.780;25.948;2024-03-02T05:57:16;57.40;;;53.13;;
45274;SDS011;31019;43.780;25.948;2024-03-02T05:59:58;51.10;;;47.40;;
45274;SDS011;31019;43.780;25.948;2024-03-02T06:02:25;50.58;;;46.88;;
45274;SDS011;31019;43.780;25.948;2024-03-02T06:04:53;45.35;;;41.85;;
45274;SDS011;31019;43.780;25.948;2024-03-02T06:07:23;50.33;;;46.63;;
45274;SDS011;31019;43.780;25.948;2024-03-02T06:09:50;50.40;;;46.60;;
45274;SDS011;31019;43.780;25.948;2024-03-02T06:12:17;47.30;;;43.88;;
45274;SDS011;31019;43.780;25.948;2024-03-02T06:14:45;42.33;;;39.03;;
45274;SDS011;31019;43.780;25.948;2024-03-02T06:17:12;42.80;;;39.20;;
45274;SDS011;31019;43.780;25.948;2024-03-02T06:19:38;42.80;;;39.50;;
45274;SDS011;31019;43.780;25.948;2024-03-02T06:22:07;43.95;;;40.47;;
45274;SDS011;31019;43.780;25.948;2024-03-02T06:24:35;42.22;;;39.03;;
45274;SDS011;31019;43.780;25.948;2024-03-02T06:27:02;44.13;;;40.72;;
45274;SDS011;31019;43.780;25.948;2024-03-02T06:29:32;45.35;;;41.97;;
45274;SDS011;31019;43.780;25.948;2024-03-02T06:31:59;42.33;;;39.13;;
45274;SDS011;31019;43.780;25.948;2024-03-02T06:34:26;38.22;;;35.17;;
45274;SDS011;31019;43.780;25.948;2024-03-02T06:36:53;40.15;;;37.15;;
45274;SDS011;31019;43.780;25.948;2024-03-02T06:39:21;41.00;;;37.90;;
45274;SDS011;31019;43.780;25.948;2024-03-02T06:41:48;42.38;;;39.08;;
45274;SDS011;31019;43.780;25.948;2024-03-02T06:44:15;41.38;;;38.28;;
45274;SDS011;31019;43.780;25.948;2024-03-02T06:46:42;42.05;;;38.90;;
45274;SDS011;31019;43.780;25.948;2024-03-02T06:49:09;43.92;;;40.53;;
45274;SDS011;31019;43.780;25.948;2024-03-02T06:51:36;41.50;;;38.28;;
45274;SDS011;31019;43.780;25.948;2024-03-02T06:54:02;42.03;;;38.85;;
45274;SDS011;31019;43.780;25.948;2024-03-02T06:56:39;39.55;;;36.55;;
45274;SDS011;31019;43.780;25.948;2024-03-02T06:59:05;43.30;;;40.15;;
45274;SDS011;31019;43.780;25.948;2024-03-02T07:01:32;43.00;;;39.80;;
45274;SDS011;31019;43.780;25.948;2024-03-02T07:03:59;42.50;;;39.45;;
45274;SDS011;31019;43.780;25.948;2024-03-02T07:06:26;44.15;;;40.95;;
45274;SDS011;31019;43.780;25.948;2024-03-02T07:08:53;45.63;;;42.50;;
45274;SDS011;31019;43.780;25.948;2024-03-02T07:11:20;43.50;;;40.20;;
45274;SDS011;31019;43.780;25.948;2024-03-02T07:13:48;41.78;;;38.78;;
45274;SDS011;31019;43.780;25.948;2024-03-02T07:16:15;43.13;;;39.72;;
45274;SDS011;31019;43.780;25.948;2024-03-02T07:18:53;43.40;;;39.90;;
45274;SDS011;31019;43.780;25.948;2024-03-02T07:21:21;41.65;;;38.65;;
45274;SDS011;31019;43.780;25.948;2024-03-02T07:23:49;42.50;;;39.38;;
45274;SDS011;31019;43.780;25.948;2024-03-02T07:26:16;40.00;;;37.00;;
45274;SDS011;31019;43.780;25.948;2024-03-02T07:28:44;39.42;;;36.53;;
45274;SDS011;31019;43.780;25.948;2024-03-02T07:31:14;42.10;;;39.20;;
45274;SDS011;31019;43.780;25.948;2024-03-02T07:33:44;42.05;;;39.05;;
45274;SDS011;31019;43.780;25.948;2024-03-02T07:36:12;42.30;;;39.30;;
45274;SDS011;31019;43.780;25.948;2024-03-02T07:38:39;42.55;;;39.35;;
45274;SDS011;31019;43.780;25.948;2024-03-02T07:41:06;37.20;;;34.63;;
45274;SDS011;31019;43.780;25.948;2024-03-02T07:43:34;40.33;;;37.53;;
45274;SDS011;31019;43.780;25.948;2024-03-02T07:46:01;40.03;;;37.33;;
45274;SDS011;31019;43.780;25.948;2024-03-02T07:48:30;36.33;;;33.72;;
45274;SDS011;31019;43.780;25.948;2024-03-02T07:50:57;35.60;;;33.03;;
45274;SDS011;31019;43.780;25.948;2024-03-02T07:53:25;35.30;;;32.70;;
45274;SDS011;31019;43.780;25.948;2024-03-02T07:55:59;37.80;;;35.00;;
45274;SDS011;31019;43.780;25.948;2024-03-02T07:58:27;36.53;;;33.92;;
45274;SDS011;31019;43.780;25.948;2024-03-02T08:00:55;35.80;;;33.20;;
45274;SDS011;31019;43.780;25.948;2024-03-02T08:03:22;38.00;;;34.42;;
45274;SDS011;31019;43.780;25.948;2024-03-02T08:05:50;34.55;;;32.05;;
45274;SDS011;31019;43.780;25.948;2024-03-02T08:08:19;36.88;;;34.17;;
45274;SDS011;31019;43.780;25.948;2024-03-02T08:10:46;38.17;;;35.47;;
45274;SDS011;31019;43.780;25.948;2024-03-02T08:15:43;38.67;;;35.92;;
45274;SDS011;31019;43.780;25.948;2024-03-02T08:18:11;36.72;;;34.13;;
45274;SDS011;31019;43.780;25.948;2024-03-02T08:20:45;36.90;;;34.25;;
45274;SDS011;31019;43.780;25.948;2024-03-02T08:23:14;35.47;;;32.78;;
45274;SDS011;31019;43.780;25.948;2024-03-02T08:25:41;32.28;;;29.88;;
45274;SDS011;31019;43.780;25.948;2024-03-02T08:28:08;33.20;;;30.80;;
45274;SDS011;31019;43.780;25.948;2024-03-02T08:30:35;33.55;;;31.15;;
45274;SDS011;31019;43.780;25.948;2024-03-02T08:33:02;33.83;;;31.42;;
45274;SDS011;31019;43.780;25.948;2024-03-02T08:35:31;35.25;;;32.75;;
45274;SDS011;31019;43.780;25.948;2024-03-02T08:38:00;35.40;;;32.90;;
45274;SDS011;31019;43.780;25.948;2024-03-02T08:40:29;35.90;;;33.50;;
45274;SDS011;31019;43.780;25.948;2024-03-02T08:42:56;34.72;;;32.33;;
45274;SDS011;31019;43.780;25.948;2024-03-02T08:45:23;31.80;;;29.55;;
45274;SDS011;31019;43.780;25.948;2024-03-02T08:50:26;30.83;;;28.70;;
45274;SDS011;31019;43.780;25.948;2024-03-02T08:52:53;34.08;;;31.88;;
45274;SDS011;31019;43.780;25.948;2024-03-02T08:55:20;34.78;;;32.47;;
45274;SDS011;31019;43.780;25.948;2024-03-02T08:57:48;34.58;;;32.20;;
45274;SDS011;31019;43.780;25.948;2024-03-02T09:00:15;34.10;;;31.80;;
45274;SDS011;31019;43.780;25.948;2024-03-02T09:02:45;33.38;;;31.17;;
45274;SDS011;31019;43.780;25.948;2024-03-02T09:05:11;30.17;;;28.17;;
45274;SDS011;31019;43.780;25.948;2024-03-02T09:07:38;32.83;;;30.67;;
45274;SDS011;31019;43.780;25.948;2024-03-02T09:10:08;33.97;;;31.88;;
45274;SDS011;31019;43.780;25.948;2024-03-02T09:12:35;32.60;;;30.50;;
45274;SDS011;31019;43.780;25.948;2024-03-02T09:15:08;35.03;;;32.30;;
45274;SDS011;31019;43.780;25.948;2024-03-02T09:17:36;37.40;;;35.00;;
45274;SDS011;31019;43.780;25.948;2024-03-02T09:20:03;31.90;;;29.70;;
45274;SDS011;31019;43.780;25.948;2024-03-02T09:22:30;30.15;;;28.05;;
45274;SDS011;31019;43.780;25.948;2024-03-02T09:24:58;33.72;;;31.52;;
45274;SDS011;31019;43.780;25.948;2024-03-02T09:27:25;30.83;;;28.83;;
45274;SDS011;31019;43.780;25.948;2024-03-02T09:29:52;33.85;;;31.65;;
45274;SDS011;31019;43.780;25.948;2024-03-02T09:32:20;34.40;;;32.10;;
45274;SDS011;31019;43.780;25.948;2024-03-02T09:34:56;34.78;;;32.20;;
45274;SDS011;31019;43.780;25.948;2024-03-02T09:37:23;32.63;;;30.52;;
45274;SDS011;31019;43.780;25.948;2024-03-02T09:39:50;40.78;;;38.05;;
45274;SDS011;31019;43.780;25.948;2024-03-02T09:42:18;40.58;;;38.17;;
45274;SDS011;31019;43.780;25.948;2024-03-02T09:44:46;33.80;;;31.67;;
45274;SDS011;31019;43.780;25.948;2024-03-02T09:47:14;35.17;;;32.97;;
45274;SDS011;31019;43.780;25.948;2024-03-02T09:49:42;32.55;;;30.45;;
45274;SDS011;31019;43.780;25.948;2024-03-02T09:52:09;34.67;;;32.53;;
45274;SDS011;31019;43.780;25.948;2024-03-02T09:54:39;35.47;;;33.17;;
45274;SDS011;31019;43.780;25.948;2024-03-02T09:57:11;42.22;;;39.63;;
45274;SDS011;31019;43.780;25.948;2024-03-02T09:59:38;38.97;;;36.58;;
45274;SDS011;31019;43.780;25.948;2024-03-02T10:02:05;42.92;;;40.22;;
45274;SDS011;31019;43.780;25.948;2024-03-02T10:04:32;34.20;;;31.90;;
45274;SDS011;31019;43.780;25.948;2024-03-02T10:07:12;33.28;;;30.88;;
45274;SDS011;31019;43.780;25.948;2024-03-02T10:09:40;33.58;;;30.80;;
45274;SDS011;31019;43.780;25.948;2024-03-02T10:12:09;35.30;;;32.47;;
45274;SDS011;31019;43.780;25.948;2024-03-02T10:14:37;41.28;;;38.05;;
45274;SDS011;31019;43.780;25.948;2024-03-02T10:17:05;44.10;;;41.20;;
45274;SDS011;31019;43.780;25.948;2024-03-02T10:19:32;34.75;;;32.38;;
45274;SDS011;31019;43.780;25.948;2024-03-02T10:22:00;40.00;;;37.40;;
45274;SDS011;31019;43.780;25.948;2024-03-02T10:24:35;34.75;;;32.35;;
45274;SDS011;31019;43.780;25.948;2024-03-02T10:27:06;36.85;;;34.35;;
45274;SDS011;31019;43.780;25.948;2024-03-02T10:29:38;33.70;;;31.50;;
45274;SDS011;31019;43.780;25.948;2024-03-02T10:32:07;41.78;;;39.17;;
45274;SDS011;31019;43.780;25.948;2024-03-02T10:34:49;40.83;;;38.22;;
45274;SDS011;31019;43.780;25.948;2024-03-02T10:37:16;32.05;;;29.85;;
45274;SDS011;31019;43.780;25.948;2024-03-02T10:39:45;33.50;;;31.20;;
45274;SDS011;31019;43.780;25.948;2024-03-02T10:42:12;35.25;;;32.92;;
45274;SDS011;31019;43.780;25.948;2024-03-02T10:44:41;36.83;;;34.38;;
45274;SDS011;31019;43.780;25.948;2024-03-02T10:47:09;33.70;;;31.40;;
45274;SDS011;31019;43.780;25.948;2024-03-02T10:49:40;35.03;;;32.28;;
45274;SDS011;31019;43.780;25.948;2024-03-02T10:52:08;43.88;;;41.00;;
45274;SDS011;31019;43.780;25.948;2024-03-02T10:54:35;43.80;;;41.10;;
45274;SDS011;31019;43.780;25.948;2024-03-02T10:57:07;41.72;;;39.22;;
45274;SDS011;31019;43.780;25.948;2024-03-02T10:59:44;35.55;;;33.15;;
45274;SDS011;31019;43.780;25.948;2024-03-02T11:02:16;37.92;;;35.50;;
45274;SDS011;31019;43.780;25.948;2024-03-02T11:04:46;32.15;;;30.05;;
45274;SDS011;31019;43.780;25.948;2024-03-02T11:07:15;35.63;;;32.78;;
45274;SDS011;31019;43.780;25.948;2024-03-02T11:09:49;35.33;;;33.00;;
45274;SDS011;31019;43.780;25.948;2024-03-02T11:12:27;37.22;;;34.65;;
45274;SDS011;31019;43.780;25.948;2024-03-02T11:14:56;32.25;;;29.95;;
45274;SDS011;31019;43.780;25.948;2024-03-02T11:17:24;32.78;;;30.58;;
45274;SDS011;31019;43.780;25.948;2024-03-02T11:19:52;33.50;;;31.30;;
45274;SDS011;31019;43.780;25.948;2024-03-02T11:22:19;33.75;;;31.45;;
45274;SDS011;31019;43.780;25.948;2024-03-02T11:24:48;31.48;;;29.38;;
45274;SDS011;31019;43.780;25.948;2024-03-02T11:27:20;33.30;;;31.10;;
45274;SDS011;31019;43.780;25.948;2024-03-02T11:33:24;38.53;;;35.88;;
45274;SDS011;31019;43.780;25.948;2024-03-02T11:35:56;31.70;;;29.50;;
45274;SDS011;31019;43.780;25.948;2024-03-02T11:38:27;32.33;;;30.05;;
45274;SDS011;31019;43.780;25.948;2024-03-02T11:40:55;32.90;;;30.50;;
45274;SDS011;31019;43.780;25.948;2024-03-02T11:43:22;33.70;;;31.40;;
45274;SDS011;31019;43.780;25.948;2024-03-02T11:46:00;32.35;;;30.25;;
45274;SDS011;31019;43.780;25.948;2024-03-02T11:48:32;34.08;;;31.88;;
45274;SDS011;31019;43.780;25.948;2024-03-02T11:51:00;29.63;;;27.55;;
45274;SDS011;31019;43.780;25.948;2024-03-02T11:53:27;32.40;;;28.73;;
45274;SDS011;31019;43.780;25.948;2024-03-02T11:55:55;31.08;;;29.02;;
45274;SDS011;31019;43.780;25.948;2024-03-02T11:58:22;29.73;;;27.83;;
45274;SDS011;31019;43.780;25.948;2024-03-02T12:00:51;31.67;;;29.48;;
45274;SDS011;31019;43.780;25.948;2024-03-02T12:03:21;33.13;;;31.02;;
45274;SDS011;31019;43.780;25.948;2024-03-02T12:05:50;30.98;;;28.98;;
45274;SDS011;31019;43.780;25.948;2024-03-02T12:08:18;30.90;;;28.55;;
45274;SDS011;31019;43.780;25.948;2024-03-02T12:10:55;30.27;;;27.80;;
45274;SDS011;31019;43.780;25.948;2024-03-02T12:13:23;28.67;;;26.60;;
45274;SDS011;31019;43.780;25.948;2024-03-02T12:15:53;30.33;;;28.23;;
45274;SDS011;31019;43.780;25.948;2024-03-02T12:18:24;32.65;;;30.50;;
45274;SDS011;31019;43.780;25.948;2024-03-02T12:20:51;33.40;;;30.90;;
45274;SDS011;31019;43.780;25.948;2024-03-02T12:23:22;30.67;;;28.67;;
45274;SDS011;31019;43.780;25.948;2024-03-02T12:25:49;31.98;;;29.88;;
45274;SDS011;31019;43.780;25.948;2024-03-02T12:28:20;37.10;;;34.40;;
45274;SDS011;31019;43.780;25.948;2024-03-02T12:30:55;31.88;;;29.50;;
45274;SDS011;31019;43.780;25.948;2024-03-02T12:37:15;32.20;;;30.00;;
45274;SDS011;31019;43.780;25.948;2024-03-02T12:39:44;31.98;;;29.88;;
45274;SDS011;31019;43.780;25.948;2024-03-02T12:42:11;37.50;;;35.03;;
45274;SDS011;31019;43.780;25.948;2024-03-02T12:44:39;36.65;;;34.15;;
45274;SDS011;31019;43.780;25.948;2024-03-02T12:47:06;34.42;;;31.98;;
45274;SDS011;31019;43.780;25.948;2024-03-02T12:49:33;45.00;;;30.33;;
45274;SDS011;31019;43.780;25.948;2024-03-02T12:52:01;34.03;;;31.80;;
45274;SDS011;31019;43.780;25.948;2024-03-02T12:54:29;31.05;;;28.95;;
45274;SDS011;31019;43.780;25.948;2024-03-02T12:56:57;33.00;;;30.70;;
45274;SDS011;31019;43.780;25.948;2024-03-02T12:59:24;31.63;;;29.52;;
45274;SDS011;31019;43.780;25.948;2024-03-02T13:01:51;32.33;;;30.20;;
45274;SDS011;31019;43.780;25.948;2024-03-02T13:04:21;32.30;;;30.20;;
45274;SDS011;31019;43.780;25.948;2024-03-02T13:06:49;31.85;;;29.75;;
45274;SDS011;31019;43.780;25.948;2024-03-02T13:09:16;30.50;;;28.40;;
45274;SDS011;31019;43.780;25.948;2024-03-02T13:11:45;32.92;;;30.73;;
45274;SDS011;31019;43.780;25.948;2024-03-02T13:14:12;31.63;;;29.33;;
45274;SDS011;31019;43.780;25.948;2024-03-02T13:16:38;32.35;;;30.15;;
45274;SDS011;31019;43.780;25.948;2024-03-02T13:19:07;32.08;;;29.88;;
45274;SDS011;31019;43.780;25.948;2024-03-02T13:21:34;31.90;;;29.80;;
45274;SDS011;31019;43.780;25.948;2024-03-02T13:24:06;32.83;;;30.52;;
45274;SDS011;31019;43.780;25.948;2024-03-02T13:29:01;28.13;;;26.13;;
45274;SDS011;31019;43.780;25.948;2024-03-02T13:31:28;30.38;;;28.08;;
45274;SDS011;31019;43.780;25.948;2024-03-02T13:33:56;32.00;;;29.50;;
45274;SDS011;31019;43.780;25.948;2024-03-02T13:36:28;30.17;;;28.08;;
45274;SDS011;31019;43.780;25.948;2024-03-02T13:38:58;29.33;;;27.13;;
45274;SDS011;31019;43.780;25.948;2024-03-02T13:41:24;28.38;;;26.38;;
45274;SDS011;31019;43.780;25.948;2024-03-02T13:43:51;29.48;;;27.23;;
45274;SDS011;31019;43.780;25.948;2024-03-02T13:46:25;28.40;;;26.30;;
45274;SDS011;31019;43.780;25.948;2024-03-02T13:48:52;27.17;;;25.08;;
45274;SDS011;31019;43.780;25.948;2024-03-02T13:51:21;29.33;;;27.13;;
45274;SDS011;31019;43.780;25.948;2024-03-02T13:53:48;29.45;;;27.25;;
45274;SDS011;31019;43.780;25.948;2024-03-02T13:56:15;26.90;;;24.90;;
45274;SDS011;31019;43.780;25.948;2024-03-02T13:58:42;27.70;;;25.70;;
45274;SDS011;31019;43.780;25.948;2024-03-02T14:01:11;28.42;;;26.13;;
45274;SDS011;31019;43.780;25.948;2024-03-02T14:03:39;27.23;;;25.23;;
45274;SDS011;31019;43.780;25.948;2024-03-02T14:06:06;26.30;;;24.40;;
45274;SDS011;31019;43.780;25.948;2024-03-02T14:08:35;27.73;;;25.73;;
45274;SDS011;31019;43.780;25.948;2024-03-02T14:11:02;27.35;;;25.35;;
45274;SDS011;31019;43.780;25.948;2024-03-02T14:13:29;25.88;;;23.98;;
45274;SDS011;31019;43.780;25.948;2024-03-02T14:15:56;27.42;;;25.42;;
45274;SDS011;31019;43.780;25.948;2024-03-02T14:18:25;27.67;;;25.70;;
45274;SDS011;31019;43.780;25.948;2024-03-02T14:20:58;26.17;;;24.38;;
45274;SDS011;31019;43.780;25.948;2024-03-02T14:23:28;27.17;;;25.38;;
45274;SDS011;31019;43.780;25.948;2024-03-02T14:25:56;26.10;;;24.35;;
45274;SDS011;31019;43.780;25.948;2024-03-02T14:28:25;30.52;;;28.52;;
45274;SDS011;31019;43.780;25.948;2024-03-02T14:30:54;27.05;;;24.95;;
45274;SDS011;31019;43.780;25.948;2024-03-02T14:33:21;26.35;;;24.55;;
45274;SDS011;31019;43.780;25.948;2024-03-02T14:35:52;28.13;;;26.23;;
45274;SDS011;31019;43.780;25.948;2024-03-02T14:38:21;27.30;;;25.20;;